Terminal Aerodrome Forecast
Issued by NWS

Home | Current Version | Previous Version | Text Only | Print | Product List | Glossary On
Versions: 1 2 3 4 5 6 7 8 9 10 11 12 13 14 15 16 17 18
000
FTUS43 KTOP 250121 AAA
TAFMHK
TAF AMD
KMHK 250121Z 2501/2524 02008KT 3SM SHRA VCTS BKN008 OVC015CB
     FM250400 36013G21KT P6SM VCSH OVC008
     FM251400 36014KT P6SM OVC012=

USA.gov is the U.S. government's official web portal to all federal, state and local government web resources and services.